createdAt,value
2019-02-22T00:00:59.145Z,5.35
2019-02-22T00:03:36.590Z,6.15
2019-02-22T00:06:13.256Z,6.30
2019-02-22T00:08:49.544Z,5.72
2019-02-22T00:11:25.900Z,5.97
2019-02-22T00:14:03.292Z,6.07
2019-02-22T00:16:39.568Z,5.80
2019-02-22T00:19:16.072Z,5.70
2019-02-22T00:21:52.478Z,5.85
2019-02-22T00:24:29.641Z,5.87
2019-02-22T00:27:05.857Z,5.60
2019-02-22T00:29:42.416Z,4.95
2019-02-22T00:32:18.880Z,5.33
2019-02-22T00:34:56.143Z,5.53
2019-02-22T00:37:32.766Z,5.03
2019-02-22T00:40:10.860Z,5.65
2019-02-22T00:42:46.796Z,6.00
2019-02-22T00:45:23.002Z,5.55
2019-02-22T00:47:59.637Z,5.90
2019-02-22T00:50:35.885Z,5.70
2019-02-22T00:53:12.952Z,5.83
2019-02-22T00:55:56.389Z,5.53
2019-02-22T00:58:39.722Z,5.65
2019-02-22T01:01:23.895Z,5.13
2019-02-22T01:04:15.972Z,5.47
2019-02-22T01:07:03.855Z,5.78
2019-02-22T01:09:42.355Z,5.58
2019-02-22T01:12:29.217Z,5.53
2019-02-22T01:15:17.352Z,5.30
2019-02-22T01:17:55.973Z,5.33
2019-02-22T01:20:33.024Z,5.92
2019-02-22T01:23:37.426Z,5.75
2019-02-22T01:26:17.293Z,5.62
2019-02-22T01:28:54.298Z,5.53
2019-02-22T01:31:30.965Z,5.70
2019-02-22T01:34:07.126Z,5.60
2019-02-22T01:36:43.741Z,5.60
2019-02-22T01:39:26.578Z,5.45
2019-02-22T01:42:15.999Z,5.43
2019-02-22T01:45:21.343Z,5.83
2019-02-22T01:48:20.367Z,5.60
2019-02-22T01:51:28.006Z,5.72
2019-02-22T01:54:06.533Z,6.00
2019-02-22T01:56:56.259Z,4.85
2019-02-22T01:59:48.168Z,4.87
2019-02-22T02:02:25.068Z,5.75
2019-02-22T02:05:26.158Z,5.25
2019-02-22T02:08:18.747Z,5.43
2019-02-22T02:11:01.699Z,5.42
2019-02-22T02:13:47.238Z,5.80
2019-02-22T02:16:23.786Z,5.20
2019-02-22T02:19:00.365Z,5.33
2019-02-22T02:21:37.326Z,5.35
2019-02-22T02:24:13.722Z,4.80
2019-02-22T02:26:50.364Z,4.87
2019-02-22T02:29:26.476Z,5.50
2019-02-22T02:32:02.276Z,5.50
2019-02-22T02:34:38.868Z,5.05
2019-02-22T02:37:15.522Z,4.77
2019-02-22T02:39:52.218Z,5.20
2019-02-22T02:42:28.876Z,5.35
2019-02-22T02:45:05.896Z,5.12
2019-02-22T02:47:42.246Z,5.03
2019-02-22T02:50:18.871Z,4.92
2019-02-22T02:52:55.873Z,5.45
2019-02-22T02:55:36.130Z,5.03
2019-02-22T02:58:11.989Z,4.83
2019-02-22T03:00:48.972Z,5.00
2019-02-22T03:03:25.530Z,5.15
2019-02-22T03:06:06.863Z,5.17
2019-02-22T03:08:43.587Z,5.10
2019-02-22T03:11:21.311Z,5.22
2019-02-22T03:13:57.708Z,5.33
2019-02-22T03:16:34.206Z,4.80
2019-02-22T03:19:11.004Z,5.22
2019-02-22T03:21:47.387Z,4.60
2019-02-22T03:24:23.324Z,5.37
2019-02-22T03:26:59.172Z,4.42
2019-02-22T03:29:35.950Z,4.55
2019-02-22T03:32:14.238Z,5.28
2019-02-22T03:34:53.586Z,4.45
2019-02-22T03:37:33.110Z,4.60
2019-02-22T03:40:31.635Z,4.72
2019-02-22T03:43:17.524Z,4.78
2019-02-22T03:46:30.769Z,4.87
2019-02-22T03:49:19.905Z,4.20
2019-02-22T03:52:43.788Z,4.83
2019-02-22T03:59:01.569Z,4.12
2019-02-22T04:01:37.832Z,4.10
2019-02-22T04:04:13.697Z,3.90
2019-02-22T04:06:49.598Z,4.03
2019-02-22T04:09:27.937Z,4.30
2019-02-22T04:12:04.431Z,4.37
2019-02-22T04:22:44.096Z,4.47
2019-02-22T04:25:30.019Z,4.23
2019-02-22T04:28:09.450Z,3.87
2019-02-22T04:30:45.838Z,4.08
2019-02-22T04:33:22.271Z,3.80
2019-02-22T04:35:58.673Z,4.37
2019-02-22T04:38:35.002Z,4.50
2019-02-22T04:41:11.172Z,3.98
2019-02-22T04:43:47.005Z,3.85
2019-02-22T04:46:23.522Z,3.90
2019-02-22T04:48:59.554Z,3.58
2019-02-22T04:51:36.993Z,3.52
2019-02-22T04:54:13.085Z,3.87
2019-02-22T04:56:49.686Z,3.70
2019-02-22T04:59:26.836Z,3.70
2019-02-22T05:02:03.289Z,3.70
2019-02-22T05:04:39.498Z,3.72
2019-02-22T05:07:15.347Z,3.58
2019-02-22T05:09:54.714Z,3.42
2019-02-22T05:12:31.520Z,4.05
2019-02-22T05:15:12.436Z,3.42
2019-02-22T05:17:46.759Z,3.33
2019-02-22T05:20:23.016Z,3.58
2019-02-22T05:23:03.961Z,3.37
2019-02-22T05:25:37.915Z,3.60
2019-02-22T05:28:15.546Z,3.10
2019-02-22T05:30:51.673Z,3.15
2019-02-22T05:33:27.457Z,3.67
2019-02-22T05:36:03.377Z,3.35
2019-02-22T05:38:40.032Z,3.25
2019-02-22T05:41:15.873Z,2.98
2019-02-22T05:43:52.169Z,2.83
2019-02-22T05:46:27.960Z,2.95
2019-02-22T05:49:04.257Z,3.00
2019-02-22T05:51:40.509Z,3.65
2019-02-22T05:54:16.222Z,3.08
2019-02-22T05:56:55.072Z,3.25
2019-02-22T05:59:31.624Z,2.98
2019-02-22T06:02:08.303Z,3.00
2019-02-22T06:04:44.718Z,3.17
2019-02-22T06:07:20.911Z,2.98
2019-02-22T06:09:58.891Z,2.70
2019-02-22T06:12:35.535Z,3.05
2019-02-22T06:15:12.824Z,5.00
2019-02-22T06:17:49.747Z,7.37
2019-02-22T06:20:26.837Z,4.78
2019-02-22T06:23:03.052Z,4.30
2019-02-22T06:25:39.336Z,4.87
2019-02-22T06:28:15.155Z,4.75
2019-02-22T06:30:52.326Z,4.00
2019-02-22T06:33:28.520Z,4.83
2019-02-22T06:36:05.404Z,4.40
2019-02-22T06:38:43.087Z,3.43
2019-02-22T06:41:19.152Z,3.58
2019-02-22T06:43:55.065Z,7.03
2019-02-22T06:46:32.519Z,4.92
2019-02-22T06:49:09.479Z,4.87
2019-02-22T06:51:46.061Z,3.85
2019-02-22T06:54:22.328Z,4.72
2019-02-22T06:56:59.933Z,4.67
2019-02-22T06:59:36.490Z,3.85
2019-02-22T07:02:14.963Z,3.27
2019-02-22T07:04:51.268Z,3.43
2019-02-22T07:07:27.147Z,2.95
2019-02-22T07:10:02.844Z,2.92
2019-02-22T07:12:56.747Z,2.75
2019-02-22T07:15:33.600Z,2.98
2019-02-22T07:18:10.075Z,2.58
2019-02-22T07:20:57.200Z,2.50
2019-02-22T07:23:36.733Z,2.40
2019-02-22T07:26:12.821Z,2.65
2019-02-22T07:28:48.526Z,2.60
2019-02-22T07:31:25.645Z,2.33
2019-02-22T07:34:02.100Z,2.33
2019-02-22T07:36:38.225Z,2.70
2019-02-22T07:39:14.738Z,2.35
2019-02-22T07:41:51.302Z,2.45
2019-02-22T07:44:29.039Z,2.27
2019-02-22T07:47:05.109Z,2.22
2019-02-22T07:49:43.586Z,2.40
2019-02-22T07:52:20.469Z,2.35
2019-02-22T07:55:07.688Z,2.08
2019-02-22T07:57:46.210Z,2.42
2019-02-22T08:00:29.027Z,2.27
2019-02-22T08:03:09.865Z,2.37
2019-02-22T08:06:00.633Z,2.10
2019-02-22T08:08:34.801Z,2.52
2019-02-22T08:11:16.538Z,2.50
2019-02-22T08:13:56.384Z,2.15
2019-02-22T08:16:41.773Z,2.40
2019-02-22T08:19:21.241Z,2.20
2019-02-22T08:22:16.446Z,1.90
2019-02-22T08:25:18.613Z,2.15
2019-02-22T08:28:14.197Z,2.62
2019-02-22T08:31:27.245Z,1.92
2019-02-22T08:33:57.172Z,1.90
2019-02-22T08:36:45.106Z,1.80
2019-02-22T08:39:25.309Z,1.80
2019-02-22T08:42:08.698Z,2.33
2019-02-22T08:44:45.254Z,2.20
2019-02-22T08:47:21.361Z,1.77
2019-02-22T08:50:07.594Z,2.22
2019-02-22T08:52:53.554Z,1.70
2019-02-22T08:55:41.410Z,1.60
2019-02-22T08:58:35.544Z,2.35
2019-02-22T09:01:19.981Z,2.00
2019-02-22T09:04:13.596Z,2.12
2019-02-22T09:07:12.048Z,1.90
2019-02-22T09:10:13.142Z,1.85
2019-02-22T09:13:19.498Z,2.12
2019-02-22T09:22:42.941Z,1.65
2019-02-22T09:29:05.027Z,2.00
2019-02-22T09:31:52.736Z,2.20
2019-02-22T09:34:40.902Z,1.90
2019-02-22T09:38:31.490Z,1.50
2019-02-22T09:40:55.808Z,1.90
2019-02-22T09:43:56.865Z,2.00
2019-02-22T09:50:10.728Z,1.47
2019-02-22T09:53:00.823Z,1.62
2019-02-22T09:56:12.934Z,1.85
2019-02-22T09:59:38.184Z,1.50
2019-02-22T10:02:47.835Z,1.50
2019-02-22T10:06:51.494Z,1.80
2019-02-22T10:10:21.727Z,1.62
2019-02-22T10:25:01.331Z,1.85
2019-02-22T10:27:59.434Z,1.82
2019-02-22T10:31:10.409Z,1.80
2019-02-22T10:34:36.835Z,2.25
2019-02-22T10:41:32.658Z,1.40
2019-02-22T10:51:12.240Z,1.47
2019-02-22T10:53:48.633Z,1.70
2019-02-22T10:56:24.796Z,1.60
2019-02-22T10:59:01.435Z,1.10
2019-02-22T11:01:37.945Z,1.57
2019-02-22T11:04:14.181Z,1.37
2019-02-22T11:06:50.545Z,1.40
2019-02-22T11:09:26.293Z,1.55
2019-02-22T11:12:03.096Z,1.20
2019-02-22T11:14:39.482Z,1.57
2019-02-22T11:17:45.188Z,2.67
2019-02-22T11:52:38.716Z,2.22
2019-02-22T12:35:05.140Z,2.62
2019-02-22T12:43:21.318Z,3.47
2019-02-22T12:58:04.461Z,2.60
2019-02-22T13:01:29.995Z,2.67
2019-02-22T13:05:08.030Z,2.80
2019-02-22T13:17:02.562Z,2.27
2019-02-22T13:39:17.041Z,2.20
2019-02-22T13:41:53.957Z,2.13
2019-02-22T13:44:30.146Z,2.15
2019-02-22T13:47:06.185Z,2.20
2019-02-22T13:49:42.719Z,1.87
2019-02-22T13:52:19.352Z,2.45
2019-02-22T13:54:55.403Z,1.70
2019-02-22T13:57:31.950Z,2.10
2019-02-22T14:00:12.040Z,1.90
2019-02-22T14:02:48.202Z,2.10
2019-02-22T14:05:24.285Z,1.92
2019-02-22T14:08:01.292Z,1.75
2019-02-22T14:10:38.125Z,2.25
2019-02-22T14:13:14.010Z,2.08
2019-02-22T14:15:50.604Z,2.42
2019-02-22T14:18:27.824Z,2.10
2019-02-22T14:21:03.604Z,2.02
2019-02-22T14:23:40.300Z,2.15
2019-02-22T14:26:16.639Z,2.27
2019-02-22T14:28:52.559Z,1.95
2019-02-22T14:31:28.874Z,1.57
2019-02-22T14:34:05.641Z,1.60
2019-02-22T14:36:42.285Z,1.82
2019-02-22T14:39:19.348Z,1.90
2019-02-22T14:41:55.855Z,2.30
2019-02-22T14:44:32.662Z,1.77
2019-02-22T14:47:09.173Z,1.87
2019-02-22T14:49:46.394Z,1.87
2019-02-22T14:52:22.969Z,2.10
2019-02-22T14:55:00.331Z,2.27
2019-02-22T14:57:37.059Z,2.15
2019-02-22T15:00:15.939Z,2.12
2019-02-22T15:02:51.657Z,1.60
2019-02-22T15:05:27.846Z,1.75
2019-02-22T15:08:04.470Z,2.67
2019-02-22T15:10:40.862Z,1.77
2019-02-22T15:13:17.031Z,1.90
2019-02-22T15:16:11.578Z,1.95
2019-02-22T15:18:48.006Z,2.15
2019-02-22T15:21:24.359Z,2.12
2019-02-22T15:24:00.240Z,1.57
2019-02-22T15:26:36.447Z,1.87
2019-02-22T15:29:12.148Z,1.70
2019-02-22T15:31:48.580Z,2.30
2019-02-22T15:34:25.221Z,2.12
2019-02-22T15:37:01.525Z,2.10
2019-02-22T15:39:38.108Z,2.33
2019-02-22T15:42:15.073Z,1.87
2019-02-22T15:44:51.634Z,2.15
2019-02-22T15:47:28.634Z,2.15
2019-02-22T15:50:06.480Z,1.70
2019-02-22T15:52:43.072Z,2.25
2019-02-22T15:55:18.897Z,1.62
2019-02-22T15:57:56.340Z,2.33
2019-02-22T16:00:33.120Z,2.25
2019-02-22T16:03:09.942Z,1.95
2019-02-22T16:05:47.091Z,2.08
2019-02-22T16:08:24.153Z,1.93
2019-02-22T16:11:00.365Z,2.33
2019-02-22T16:13:36.997Z,2.30
2019-02-22T16:16:23.028Z,1.70
2019-02-22T16:18:53.525Z,1.87
2019-02-22T16:21:29.890Z,2.03
2019-02-22T16:24:06.104Z,2.10
2019-02-22T16:26:42.633Z,2.08
2019-02-22T16:29:18.961Z,2.02
2019-02-22T16:31:55.481Z,1.92
2019-02-22T16:34:42.851Z,2.02
2019-02-22T16:37:10.269Z,2.27
2019-02-22T16:39:47.538Z,2.40
2019-02-22T16:42:23.659Z,1.98
2019-02-22T16:44:59.545Z,2.27
2019-02-22T16:47:40.056Z,2.12
2019-02-22T16:50:14.812Z,2.27
2019-02-22T16:52:51.436Z,2.17
2019-02-22T16:55:27.219Z,3.67
2019-02-22T16:58:04.333Z,1.95
2019-02-22T17:00:41.396Z,1.98
2019-02-22T17:03:18.510Z,2.08
2019-02-22T17:05:55.353Z,2.02
2019-02-22T17:08:32.358Z,2.52
2019-02-22T17:11:12.213Z,2.08
2019-02-22T17:13:49.390Z,2.58
2019-02-22T17:16:26.040Z,2.35
2019-02-22T17:19:02.365Z,2.45
2019-02-22T17:21:39.393Z,2.27
2019-02-22T17:24:15.717Z,2.22
2019-02-22T17:26:52.552Z,2.80
2019-02-22T17:29:29.116Z,2.95
2019-02-22T17:32:05.341Z,3.27
2019-02-22T17:34:41.434Z,3.58
2019-02-22T17:37:17.101Z,3.20
2019-02-22T17:39:53.453Z,2.75
2019-02-22T17:42:30.333Z,3.20
2019-02-22T17:45:06.234Z,3.33
2019-02-22T17:47:42.053Z,2.95
2019-02-22T17:50:18.015Z,3.17
2019-02-22T17:52:54.265Z,3.40
2019-02-22T17:55:30.016Z,3.25
2019-02-22T17:58:06.932Z,3.35
2019-02-22T18:00:43.398Z,3.10
2019-02-22T18:03:19.680Z,3.40
2019-02-22T18:05:55.736Z,3.70
2019-02-22T18:08:31.958Z,3.58
2019-02-22T18:11:08.083Z,3.17
2019-02-22T18:13:44.285Z,2.87
2019-02-22T18:16:21.011Z,3.83
2019-02-22T18:18:57.018Z,6.25
2019-02-22T18:21:33.070Z,7.00
2019-02-22T18:24:09.814Z,5.35
2019-02-22T18:26:46.354Z,4.90
2019-02-22T18:29:22.274Z,4.20
2019-02-22T18:31:58.737Z,4.47
2019-02-22T18:34:35.543Z,3.58
2019-02-22T18:37:12.207Z,4.05
2019-02-22T18:39:48.425Z,3.58
2019-02-22T18:42:24.816Z,3.55
2019-02-22T18:45:01.423Z,3.25
2019-02-22T18:47:37.755Z,4.05
2019-02-22T18:50:13.971Z,3.50
2019-02-22T18:52:49.768Z,3.20
2019-02-22T18:55:26.752Z,3.35
2019-02-22T18:58:03.172Z,2.77
2019-02-22T19:00:39.281Z,3.05
2019-02-22T19:03:15.400Z,3.08
2019-02-22T19:05:51.614Z,3.20
2019-02-22T19:08:32.485Z,3.20
2019-02-22T19:11:06.777Z,3.08
2019-02-22T19:13:43.628Z,2.98
2019-02-22T19:16:19.933Z,2.77
2019-02-22T19:18:55.972Z,2.45
2019-02-22T19:21:32.412Z,2.67
2019-02-22T19:24:09.171Z,2.92
2019-02-22T19:26:45.892Z,2.60
2019-02-22T19:29:22.650Z,2.60
2019-02-22T19:31:58.769Z,2.52
2019-02-22T19:34:35.017Z,3.35
2019-02-22T19:37:12.310Z,3.62
2019-02-22T19:40:09.722Z,3.17
2019-02-22T19:42:47.152Z,2.90
2019-02-22T19:45:23.361Z,3.10
2019-02-22T19:47:59.418Z,2.60
2019-02-22T19:50:41.402Z,2.70
2019-02-22T19:53:14.114Z,3.10
2019-02-22T19:55:50.052Z,2.90
2019-02-22T19:58:26.712Z,3.05
2019-02-22T20:01:03.275Z,2.77
2019-02-22T20:03:39.020Z,3.25
2019-02-22T20:06:15.446Z,2.95
2019-02-22T20:08:51.688Z,2.70
2019-02-22T20:11:28.228Z,2.52
2019-02-22T20:14:05.049Z,2.70
2019-02-22T20:16:41.717Z,3.55
2019-02-22T20:19:18.080Z,3.25
2019-02-22T20:21:54.127Z,2.80
2019-02-22T20:24:30.704Z,2.45
2019-02-22T20:27:07.496Z,2.75
2019-02-22T20:29:44.308Z,2.80
2019-02-22T20:32:20.740Z,3.00
2019-02-22T20:34:56.447Z,2.55
2019-02-22T20:37:33.794Z,2.80
2019-02-22T20:40:10.136Z,3.10
2019-02-22T20:42:46.430Z,2.87
2019-02-22T20:45:22.661Z,3.00
2019-02-22T20:48:05.045Z,3.00
2019-02-22T20:50:37.058Z,3.00
2019-02-22T20:53:13.040Z,2.58
2019-02-22T20:55:49.561Z,2.62
2019-02-22T20:58:26.808Z,2.85
2019-02-22T21:01:14.229Z,2.95
2019-02-22T21:03:40.748Z,2.85
2019-02-22T21:06:17.405Z,2.65
2019-02-22T21:08:53.768Z,2.62
2019-02-22T21:11:30.617Z,2.70
2019-02-22T21:14:06.462Z,3.20
2019-02-22T21:16:43.374Z,2.72
2019-02-22T21:19:19.851Z,2.52
2019-02-22T21:21:57.524Z,2.72
2019-02-22T21:24:34.033Z,2.58
2019-02-22T21:27:11.076Z,3.08
2019-02-22T21:29:48.255Z,2.87
2019-02-22T21:32:24.706Z,2.73
2019-02-22T21:35:02.603Z,2.47
2019-02-22T21:37:39.670Z,2.72
2019-02-22T21:40:16.613Z,2.67
2019-02-22T21:43:05.090Z,3.12
2019-02-22T21:45:42.617Z,2.85
2019-02-22T21:48:27.205Z,2.95
2019-02-22T21:50:58.760Z,2.90
2019-02-22T21:53:34.534Z,2.55
2019-02-22T21:56:11.788Z,2.42
2019-02-22T21:58:49.507Z,2.47
2019-02-22T22:01:25.904Z,2.52
2019-02-22T22:04:02.892Z,2.72
2019-02-22T22:06:38.809Z,2.95
2019-02-22T22:09:15.660Z,2.40
2019-02-22T22:11:52.022Z,2.80
2019-02-22T22:14:27.733Z,2.62
2019-02-22T22:17:04.153Z,2.70
2019-02-22T22:19:41.533Z,2.45
2019-02-22T22:22:18.603Z,2.72
2019-02-22T22:24:55.207Z,2.90
2019-02-22T22:27:31.784Z,2.77
2019-02-22T22:30:09.549Z,2.05
2019-02-22T22:32:46.048Z,2.42
2019-02-22T22:35:22.776Z,2.70
2019-02-22T22:38:00.541Z,2.87
2019-02-22T22:40:37.112Z,2.27
2019-02-22T22:43:13.805Z,2.77
2019-02-22T22:45:50.899Z,2.47
2019-02-22T22:48:27.433Z,3.02
2019-02-22T22:51:03.508Z,2.35
2019-02-22T22:53:40.465Z,2.77
2019-02-22T22:56:17.316Z,2.37
2019-02-22T22:58:53.856Z,2.50
2019-02-22T23:01:33.007Z,2.50
2019-02-22T23:04:09.513Z,2.90
2019-02-22T23:06:46.065Z,2.25
2019-02-22T23:09:23.248Z,2.60
2019-02-22T23:11:59.531Z,2.50
2019-02-22T23:14:35.643Z,2.60
2019-02-22T23:17:12.433Z,2.50
2019-02-22T23:19:48.728Z,2.52
2019-02-22T23:22:25.688Z,2.35
2019-02-22T23:25:02.584Z,2.55
2019-02-22T23:27:39.133Z,2.67
2019-02-22T23:30:15.421Z,2.40
2019-02-22T23:32:52.293Z,2.65
2019-02-22T23:35:28.099Z,2.42
2019-02-22T23:38:05.622Z,2.25
2019-02-22T23:40:44.141Z,2.70
2019-02-22T23:43:20.701Z,2.55
2019-02-22T23:45:56.967Z,2.70
2019-02-22T23:48:33.248Z,2.70
2019-02-22T23:51:09.580Z,2.27
2019-02-22T23:53:45.437Z,1.95
2019-02-22T23:56:22.284Z,2.30
2019-02-22T23:58:58.904Z,2.47
